sensor_id;sensor_type;location;lat;lon;timestamp;pressure;altitude;pressure_sealevel;temperature;humidity
55014;BME280;40916;51.632;5.552;2023-03-01T00:00:43;1026.6875149564692;;;-2.2874776525920737;0
55014;BME280;40916;51.632;5.552;2023-03-01T00:01:43;1026.7087037796382;;;-2.303188467896028;0
55014;BME280;40916;51.632;5.552;2023-03-01T00:02:43;1026.6817262545787;;;-2.3110450734782475;0
55014;BME280;40916;51.632;5.552;2023-03-01T00:03:44;1026.6563863451515;;;-2.3267606820488105;0
55014;BME280;40916;51.632;5.552;2023-03-01T00:04:44;1026.6528086748385;;;-2.3267606820488105;0
55014;BME280;40916;51.632;5.552;2023-03-01T00:05:44;1026.7051259209297;;;-2.303188467896028;0
55014;BME280;40916;51.632;5.552;2023-03-01T00:06:44;1026.712827996361;;;-2.2717700297097885;0
55014;BME280;40916;51.632;5.552;2023-03-01T00:07:44;1026.6123773474278;;;-2.2874776525920737;0
55014;BME280;40916;51.632;5.552;2023-03-01T00:08:44;1026.6665661139953;;;-2.256065596780612;0
55014;BME280;40916;51.632;5.552;2023-03-01T00:09:44;1026.5897550863026;;;-2.2482145757777197;0
55014;BME280;40916;51.632;5.552;2023-03-01T00:10:44;1026.7171357938967;;;-2.224666290920119;0
55014;BME280;40916;51.632;5.552;2023-03-01T00:11:44;1026.7099788318349;;;-2.224666290920119;0
55014;BME280;40916;51.632;5.552;2023-03-01T00:12:44;1026.6598801100313;;;-2.224666290920119;0
55014;BME280;40916;51.632;5.552;2023-03-01T00:13:45;1026.6384092360238;;;-2.224666290920119;0
55014;BME280;40916;51.632;5.552;2023-03-01T00:14:45;1026.6348307574171;;;-2.224666290920119;0
55014;BME280;40916;51.632;5.552;2023-03-01T00:15:45;1026.6491446725202;;;-2.224666290920119;0
55014;BME280;40916;51.632;5.552;2023-03-01T00:16:45;1026.6238673455819;;;-2.240364351338549;0
55014;BME280;40916;51.632;5.552;2023-03-01T00:17:45;1026.645337470584;;;-2.240364351338549;0
55014;BME280;40916;51.632;5.552;2023-03-01T00:18:45;1026.571619435329;;;-2.2639174146552463;0
55014;BME280;40916;51.632;5.552;2023-03-01T00:19:45;1026.5771103798552;;;-2.256065596780612;0
55014;BME280;40916;51.632;5.552;2023-03-01T00:20:48;1026.6398511651532;;;-2.2482145757777197;0
55014;BME280;40916;51.632;5.552;2023-03-01T00:21:46;1026.6348307574171;;;-2.224666290920119;0
55014;BME280;40916;51.632;5.552;2023-03-01T00:22:46;1026.586409473432;;;-2.2325149231552466;0
55014;BME280;40916;51.632;5.552;2023-03-01T00:23:46;1026.5954675001865;;;-2.224666290920119;0
55014;BME280;40916;51.632;5.552;2023-03-01T00:24:46;1026.6491446725202;;;-2.224666290920119;0
55014;BME280;40916;51.632;5.552;2023-03-01T00:25:46;1026.7171357938967;;;-2.224666290920119;0
55014;BME280;40916;51.632;5.552;2023-03-01T00:26:46;1026.6255379975123;;;-2.2482145757777197;0
55014;BME280;40916;51.632;5.552;2023-03-01T00:27:46;1026.7075898085764;;;-2.2639174146552463;0
55014;BME280;40916;51.632;5.552;2023-03-01T00:28:46;1026.7383747258307;;;-2.240364351338549;0
55014;BME280;40916;51.632;5.552;2023-03-01T00:29:46;1026.7381307520416;;;-2.256065596780612;0
55014;BME280;40916;51.632;5.552;2023-03-01T00:30:47;1026.7576841976515;;;-2.2639174146552463;0
55014;BME280;40916;51.632;5.552;2023-03-01T00:31:47;1026.6374232115847;;;-2.2874776525920737;0
55014;BME280;40916;51.632;5.552;2023-03-01T00:32:47;1026.6910929390922;;;-2.2874776525920737;0
55014;BME280;40916;51.632;5.552;2023-03-01T00:33:47;1026.579900937141;;;-2.303188467896028;0
55014;BME280;40916;51.632;5.552;2023-03-01T00:34:47;1026.7340287393595;;;-2.2874776525920737;0
55014;BME280;40916;51.632;5.552;2023-03-01T00:35:47;1026.6299909140869;;;-2.303188467896028;0
55014;BME280;40916;51.632;5.552;2023-03-01T00:36:47;1026.7012571898777;;;-2.3189024780927454;0
55014;BME280;40916;51.632;5.552;2023-03-01T00:37:47;1026.6921630544807;;;-2.3267606820488105;0
55014;BME280;40916;51.632;5.552;2023-03-01T00:38:47;1026.7221041846735;;;-2.3503400930616394;0
55014;BME280;40916;51.632;5.552;2023-03-01T00:39:47;1026.6892413683565;;;-2.3817905173186347;0
55014;BME280;40916;51.632;5.552;2023-03-01T00:40:47;1026.6407756275762;;;-2.3896551271606867;0
55014;BME280;40916;51.632;5.552;2023-03-01T00:41:48;1026.5708459227244;;;-2.39752053913508;0
55014;BME280;40916;51.632;5.552;2023-03-01T00:42:48;1026.5526021824655;;;-2.4132537707245767;0
55014;BME280;40916;51.632;5.552;2023-03-01T00:43:48;1026.6586614871242;;;-2.3896551271606867;0
55014;BME280;40916;51.632;5.552;2023-03-01T00:44:48;1026.6531194162342;;;-2.39752053913508;0
55014;BME280;40916;51.632;5.552;2023-03-01T00:45:48;1026.6137712162497;;;-2.39752053913508;0
55014;BME280;40916;51.632;5.552;2023-03-01T00:46:48;1026.5613608417277;;;-2.4211215909619384;0
55014;BME280;40916;51.632;5.552;2023-03-01T00:47:48;1026.575668522075;;;-2.4211215909619384;0
55014;BME280;40916;51.632;5.552;2023-03-01T00:48:48;1026.5196588743386;;;-2.4447298731814016;0
55014;BME280;40916;51.632;5.552;2023-03-01T00:49:49;1026.5089286802324;;;-2.4447298731814016;0
55014;BME280;40916;51.632;5.552;2023-03-01T00:50:49;1026.5498653780217;;;-2.452600908795983;0
55014;BME280;40916;51.632;5.552;2023-03-01T00:51:49;1026.5295893849097;;;-2.476218844632225;0
55014;BME280;40916;51.632;5.552;2023-03-01T00:52:51;1026.505711864912;;;-2.4998440305179734;0
55014;BME280;40916;51.632;5.552;2023-03-01T00:53:49;1026.5736614814195;;;-2.4998440305179734;0
55014;BME280;40916;51.632;5.552;2023-03-01T00:54:51;1026.5466223432875;;;-2.5077207050614625;0
55014;BME280;40916;51.632;5.552;2023-03-01T00:55:49;1026.524722750396;;;-2.5234764748994323;0
55014;BME280;40916;51.632;5.552;2023-03-01T00:56:49;1026.384343505888;;;-2.5549977063576534;0
55014;BME280;40916;51.632;5.552;2023-03-01T00:57:49;1026.4849325947114;;;-2.5392354744949266;0
55014;BME280;40916;51.632;5.552;2023-03-01T00:58:50;1026.3425080690542;;;-2.5786471201492134;0
55014;BME280;40916;51.632;5.552;2023-03-01T00:59:50;1026.4462024082388;;;-2.5786471201492134;0
55014;BME280;40916;51.632;5.552;2023-03-01T01:00:50;1026.4247483992604;;;-2.5786471201492134;0
55014;BME280;40916;51.632;5.552;2023-03-01T01:01:50;1026.392075004651;;;-2.594417443677102;0
55014;BME280;40916;51.632;5.552;2023-03-01T01:02:50;1026.4293667804104;;;-2.6023038206854174;0
55014;BME280;40916;51.632;5.552;2023-03-01T01:03:51;1026.3915704278281;;;-2.6101910082767255;0
55014;BME280;40916;51.632;5.552;2023-03-01T01:04:50;1026.4400932227393;;;-2.6023038206854174;0
55014;BME280;40916;51.632;5.552;2023-03-01T01:05:50;1026.3752244724683;;;-2.618079006766287;0
55014;BME280;40916;51.632;5.552;2023-03-01T01:06:50;1026.37164911856;;;-2.618079006766287;0
55014;BME280;40916;51.632;5.552;2023-03-01T01:07:50;1026.3721591050996;;;-2.6023038206854174;0
55014;BME280;40916;51.632;5.552;2023-03-01T01:08:51;1026.4451330378336;;;-2.5549977063576534;0
55014;BME280;40916;51.632;5.552;2023-03-01T01:09:51;1026.452748762401;;;-2.5392354744949266;0
55014;BME280;40916;51.632;5.552;2023-03-01T01:10:51;1026.410287353718;;;-2.5234764748994323;0
55014;BME280;40916;51.632;5.552;2023-03-01T01:11:51;1026.4357591609316;;;-2.5077207050614625;0
55014;BME280;40916;51.632;5.552;2023-03-01T01:12:51;1026.3979913896196;;;-2.515598186417513;0
55014;BME280;40916;51.632;5.552;2023-03-01T01:13:51;1026.3682353698516;;;-2.491968162473899;0
55014;BME280;40916;51.632;5.552;2023-03-01T01:14:51;1026.371811722498;;;-2.491968162473899;0
55014;BME280;40916;51.632;5.552;2023-03-01T01:15:51;1026.2832096627405;;;-2.460472749034505;0
55014;BME280;40916;51.632;5.552;2023-03-01T01:16:52;1026.315785359685;;;-2.4447298731814016;0
55014;BME280;40916;51.632;5.552;2023-03-01T01:17:51;1026.3018521454323;;;-2.4289902145761495;0
55014;BME280;40916;51.632;5.552;2023-03-01T01:18:52;1026.262134495606;;;-2.4447298731814016;0
55014;BME280;40916;51.632;5.552;2023-03-01T01:19:52;1026.2800181141495;;;-2.4447298731814016;0
55014;BME280;40916;51.632;5.552;2023-03-01T01:20:52;1026.2402904781914;;;-2.460472749034505;0
55014;BME280;40916;51.632;5.552;2023-03-01T01:21:52;1026.189824063139;;;-2.476218844632225;0
55014;BME280;40916;51.632;5.552;2023-03-01T01:22:52;1026.2863888406673;;;-2.476218844632225;0
55014;BME280;40916;51.632;5.552;2023-03-01T01:23:52;1026.1206232712289;;;-2.5234764748994323;0
55014;BME280;40916;51.632;5.552;2023-03-01T01:24:52;1026.1666706538315;;;-2.5392354744949266;0
55014;BME280;40916;51.632;5.552;2023-03-01T01:25:52;1026.104963178836;;;-2.570763172999932;0
55014;BME280;40916;51.632;5.552;2023-03-01T01:26:52;1026.1218758644488;;;-2.6023038206854174;0
55014;BME280;40916;51.632;5.552;2023-03-01T01:27:53;1026.104511679338;;;-2.6417478707795716;0
55014;BME280;40916;51.632;5.552;2023-03-01T01:28:53;1026.1299721460416;;;-2.681212224905387;0
55014;BME280;40916;51.632;5.552;2023-03-01T01:29:53;1026.1049482250207;;;-2.681212224905387;0
55014;BME280;40916;51.632;5.552;2023-03-01T01:30:53;1026.0844403088665;;;-2.704900599765079;0
55014;BME280;40916;51.632;5.552;2023-03-01T01:31:53;1026.0132689508296;;;-2.7443975226507007;0
55014;BME280;40916;51.632;5.552;2023-03-01T01:32:53;1026.0040309483363;;;-2.752299354804535;0
55014;BME280;40916;51.632;5.552;2023-03-01T01:33:54;1026.03410658157;;;-2.7602020035594066;0
55014;BME280;40916;51.632;5.552;2023-03-01T01:34:53;1025.9884955745779;;;-2.783914852614931;0
55014;BME280;40916;51.632;5.552;2023-03-01T01:35:53;1025.9506517023;;;-2.7918207709594682;0
55014;BME280;40916;51.632;5.552;2023-03-01T01:36:54;1026.0107646178494;;;-2.8076350625516397;0
55014;BME280;40916;51.632;5.552;2023-03-01T01:37:54;1025.9514704244784;;;-2.8155434364378706;0
55014;BME280;40916;51.632;5.552;2023-03-01T01:38:54;1026.022945984903;;;-2.8155434364378706;0
55014;BME280;40916;51.632;5.552;2023-03-01T01:39:54;1025.9486877057946;;;-2.839273474292227;0
55014;BME280;40916;51.632;5.552;2023-03-01T01:40:54;1025.959408473035;;;-2.839273474292227;0
55014;BME280;40916;51.632;5.552;2023-03-01T01:41:54;1026.0044143373336;;;-2.831362641988367;0
55014;BME280;40916;51.632;5.552;2023-03-01T01:42:54;1025.9151568133286;;;-2.8709250078347814;0
55014;BME280;40916;51.632;5.552;2023-03-01T01:44:11;1025.925876825563;;;-2.8709250078347814;0
55014;BME280;40916;51.632;5.552;2023-03-01T01:45:30;1025.9216004589348;;;-2.8867557016894096;0
55014;BME280;40916;51.632;5.552;2023-03-01T01:45:55;1025.9673352359926;;;-2.9025896836890084;0
55014;BME280;40916;51.632;5.552;2023-03-01T01:46:55;1025.858679162727;;;-2.9342675224073886;0
55014;BME280;40916;51.632;5.552;2023-03-01T01:47:55;1025.9215753716553;;;-2.9263468275837035;0
55014;BME280;40916;51.632;5.552;2023-03-01T01:48:56;1025.8451252384273;;;-2.9184269564039766;0
55014;BME280;40916;51.632;5.552;2023-03-01T01:49:55;1025.889419288447;;;-2.9263468275837035;0
55014;BME280;40916;51.632;5.552;2023-03-01T01:50:57;1025.860091959895;;;-2.9421890411970786;0
55014;BME280;40916;51.632;5.552;2023-03-01T01:51:57;1025.8007655748665;;;-2.950111384275001;0
55014;BME280;40916;51.632;5.552;2023-03-01T01:52:55;1025.759301412235;;;-2.958034551963543;0
55014;BME280;40916;51.632;5.552;2023-03-01T01:53:57;1025.7621085681758;;;-2.973883362462889;0
55014;BME280;40916;51.632;5.552;2023-03-01T01:54:56;1025.706348153829;;;-2.981809005919313;0
55014;BME280;40916;51.632;5.552;2023-03-01T01:55:57;1025.7270000152275;;;-2.997662770860977;0
55014;BME280;40916;51.632;5.552;2023-03-01T01:56:56;1025.7726434128786;;;-3.0135198419967857;0
55014;BME280;40916;51.632;5.552;2023-03-01T01:57:57;1025.7498236684116;;;-3.005590892992849;0
55014;BME280;40916;51.632;5.552;2023-03-01T01:58:56;1025.7726434128786;;;-3.0135198419967857;0
55014;BME280;40916;51.632;5.552;2023-03-01T01:59:57;1025.7954592475069;;;-3.0214496181965202;0
55014;BME280;40916;51.632;5.552;2023-03-01T02:00:56;1025.722376485172;;;-3.0531770014341504;0
55014;BME280;40916;51.632;5.552;2023-03-01T02:01:56;1025.713861247655;;;-3.0452439132104487;0
55014;BME280;40916;51.632;5.552;2023-03-01T02:02:57;1025.7031453957038;;;-3.0452439132104487;0
55014;BME280;40916;51.632;5.552;2023-03-01T02:03:56;1025.7594629155822;;;-3.0611109184748813;0
55014;BME280;40916;51.632;5.552;2023-03-01T02:04:58;1025.6987418788372;;;-3.0611109184748813;0
55014;BME280;40916;51.632;5.552;2023-03-01T02:05:58;1025.6800394013674;;;-3.0769812403066084;0
55014;BME280;40916;51.632;5.552;2023-03-01T02:06:58;1025.6871827986247;;;-3.0769812403066084;0
55014;BME280;40916;51.632;5.552;2023-03-01T02:07:57;1025.694326196331;;;-3.0769812403066084;0
55014;BME280;40916;51.632;5.552;2023-03-01T02:08:57;1025.6443224218217;;;-3.0769812403066084;0
55014;BME280;40916;51.632;5.552;2023-03-01T02:09:57;1025.7094573535505;;;-3.0611109184748813;0
55014;BME280;40916;51.632;5.552;2023-03-01T02:10:57;1025.6902294951474;;;-3.0531770014341504;0
55014;BME280;40916;51.632;5.552;2023-03-01T02:11:57;1025.747379705927;;;-3.0531770014341504;0
55014;BME280;40916;51.632;5.552;2023-03-01T02:12:57;1025.722376485172;;;-3.0531770014341504;0
55014;BME280;40916;51.632;5.552;2023-03-01T02:13:57;1025.677310932443;;;-3.0611109184748813;0
55014;BME280;40916;51.632;5.552;2023-03-01T02:14:58;1025.6459942023744;;;-3.0452439132104487;0
55014;BME280;40916;51.632;5.552;2023-03-01T02:15:58;1025.6424222537464;;;-3.0452439132104487;0
55014;BME280;40916;51.632;5.552;2023-03-01T02:16:58;1025.706155738837;;;-3.0214496181965202;0
55014;BME280;40916;51.632;5.552;2023-03-01T02:17:58;1025.6940549562469;;;-3.0135198419967857;0
55014;BME280;40916;51.632;5.552;2023-03-01T02:18:58;1025.7533959343307;;;-3.005590892992849;0
55014;BME280;40916;51.632;5.552;2023-03-01T02:20:02;1025.6297553503628;;;-3.0135198419967857;0
55014;BME280;40916;51.632;5.552;2023-03-01T02:21:02;1025.659125805232;;;-2.997662770860977;0
55014;BME280;40916;51.632;5.552;2023-03-01T02:22:00;1025.6999727245327;;;-2.9659585445852628;0
55014;BME280;40916;51.632;5.552;2023-03-01T02:22:58;1025.6320937617406;;;-2.9659585445852628;0
55014;BME280;40916;51.632;5.552;2023-03-01T02:23:59;1025.6306863493955;;;-2.958034551963543;0
55014;BME280;40916;51.632;5.552;2023-03-01T02:25:02;1025.6393167298568;;;-2.9263468275837035;0
55014;BME280;40916;51.632;5.552;2023-03-01T02:26:00;1025.720071744407;;;-2.9184269564039766;0
55014;BME280;40916;51.632;5.552;2023-03-01T02:26:59;1025.8144041464443;;;-2.8867557016894096;0
55014;BME280;40916;51.632;5.552;2023-03-01T02:28:00;1025.670050385356;;;-2.9184269564039766;0
55014;BME280;40916;51.632;5.552;2023-03-01T02:28:59;1025.6943495599494;;;-2.894672281510502;0
55014;BME280;40916;51.632;5.552;2023-03-01T02:29:59;1025.6100269805943;;;-2.9025896836890084;0
55014;BME280;40916;51.632;5.552;2023-03-01T02:30:59;1025.5978747595757;;;-2.894672281510502;0
55014;BME280;40916;51.632;5.552;2023-03-01T02:31:59;1025.6707259505804;;;-2.863010893159313;0
55014;BME280;40916;51.632;5.552;2023-03-01T02:33:00;1025.64358350759;;;-2.8709250078347814;0
55014;BME280;40916;51.632;5.552;2023-03-01T02:33:59;1025.6221435374273;;;-2.8709250078347814;0
55014;BME280;40916;51.632;5.552;2023-03-01T02:34:59;1025.633544075878;;;-2.8550975995574;0
55014;BME280;40916;51.632;5.552;2023-03-01T02:36:00;1025.5828369359758;;;-2.8709250078347814;0
55014;BME280;40916;51.632;5.552;2023-03-01T02:37:00;1025.5849645698268;;;-2.863010893159313;0
55014;BME280;40916;51.632;5.552;2023-03-01T02:38:00;1025.6492855993204;;;-2.863010893159313;0
55014;BME280;40916;51.632;5.552;2023-03-01T02:39:00;1025.5464138079;;;-2.8867557016894096;0
55014;BME280;40916;51.632;5.552;2023-03-01T02:40:02;1025.661450152484;;;-2.8709250078347814;0
55014;BME280;40916;51.632;5.552;2023-03-01T02:41:00;1025.6257168655068;;;-2.8709250078347814;0
55014;BME280;40916;51.632;5.552;2023-03-01T02:42:00;1025.6714758871885;;;-2.8867557016894096;0
55014;BME280;40916;51.632;5.552;2023-03-01T02:43:00;1025.6721701407696;;;-2.8709250078347814;0
55014;BME280;40916;51.632;5.552;2023-03-01T02:44:01;1025.647898719909;;;-2.894672281510502;0
55014;BME280;40916;51.632;5.552;2023-03-01T02:45:00;1025.5042662586272;;;-2.910507908546318;0
55014;BME280;40916;51.632;5.552;2023-03-01T02:46:02;1025.5600039145495;;;-2.9025896836890084;0
55014;BME280;40916;51.632;5.552;2023-03-01T02:47:01;1025.6657644253685;;;-2.894672281510502;0
55014;BME280;40916;51.632;5.552;2023-03-01T02:48:01;1025.6571830711564;;;-2.8867557016894096;0
55014;BME280;40916;51.632;5.552;2023-03-01T02:49:01;1025.6929151146091;;;-2.8867557016894096;0
55014;BME280;40916;51.632;5.552;2023-03-01T02:50:01;1025.5985726063998;;;-2.87883994390452;0
55014;BME280;40916;51.632;5.552;2023-03-01T02:51:03;1025.5771330207444;;;-2.87883994390452;0
55014;BME280;40916;51.632;5.552;2023-03-01T02:52:06;1025.7121600844962;;;-2.8550975995574;0
55014;BME280;40916;51.632;5.552;2023-03-01T02:53:02;1025.6328635220027;;;-2.8709250078347814;0
55014;BME280;40916;51.632;5.552;2023-03-01T02:54:06;1025.6364368504194;;;-2.8709250078347814;0
55014;BME280;40916;51.632;5.552;2023-03-01T02:55:03;1025.6499605597965;;;-2.8471851267084993;0
55014;BME280;40916;51.632;5.552;2023-03-01T02:56:01;1025.533487416347;;;-2.8550975995574;0
55014;BME280;40916;51.632;5.552;2023-03-01T02:57:02;1025.5820637596173;;;-2.8471851267084993;0
55014;BME280;40916;51.632;5.552;2023-03-01T02:59:02;1025.6662071911426;;;-2.799727507498634;0
55014;BME280;40916;51.632;5.552;2023-03-01T03:00:03;1025.6218474245543;;;-2.7918207709594682;0
55014;BME280;40916;51.632;5.552;2023-03-01T03:01:02;1025.5509844236783;;;-2.776009752145967;0
55014;BME280;40916;51.632;5.552;2023-03-01T03:02:02;1025.5608211740307;;;-2.752299354804535;0
55014;BME280;40916;51.632;5.552;2023-03-01T03:03:02;1025.5322270544402;;;-2.752299354804535;0
55014;BME280;40916;51.632;5.552;2023-03-01T03:04:03;1025.564395439486;;;-2.752299354804535;0
55014;BME280;40916;51.632;5.552;2023-03-01T03:05:04;1025.5879230241826;;;-2.7443975226507007;0
55014;BME280;40916;51.632;5.552;2023-03-01T03:06:03;1025.575118236526;;;-2.752299354804535;0
55014;BME280;40916;51.632;5.552;2023-03-01T03:07:02;1025.5137593898037;;;-2.7681054692336993;0
55014;BME280;40916;51.632;5.552;2023-03-01T03:08:03;1025.581668046444;;;-2.7681054692336993;0
55014;BME280;40916;51.632;5.552;2023-03-01T03:09:03;1025.56109021657;;;-2.7918207709594682;0
55014;BME280;40916;51.632;5.552;2023-03-01T03:10:04;1025.7067630465551;;;-2.7681054692336993;0
55014;BME280;40916;51.632;5.552;2023-03-01T03:11:03;1025.6334047260896;;;-2.8155434364378706;0
55014;BME280;40916;51.632;5.552;2023-03-01T03:12:03;1025.656310481122;;;-2.8234526294768756;0
55014;BME280;40916;51.632;5.552;2023-03-01T03:13:04;1025.6405522600892;;;-2.8155434364378706;0
55014;BME280;40916;51.632;5.552;2023-03-01T03:14:03;1025.6277208448657;;;-2.8234526294768756;0
55014;BME280;40916;51.632;5.552;2023-03-01T03:15:04;1025.5963578194396;;;-2.8471851267084993;0
55014;BME280;40916;51.632;5.552;2023-03-01T03:16:04;1025.6121033557001;;;-2.8550975995574;0
55014;BME280;40916;51.632;5.552;2023-03-01T03:17:03;1025.6593181210715;;;-2.87883994390452;0
55014;BME280;40916;51.632;5.552;2023-03-01T03:18:04;1025.638611599656;;;-2.9025896836890084;0
55014;BME280;40916;51.632;5.552;2023-03-01T03:19:04;1025.7172193391737;;;-2.9025896836890084;0
55014;BME280;40916;51.632;5.552;2023-03-01T03:20:05;1025.6986340164015;;;-2.9184269564039766;0
55014;BME280;40916;51.632;5.552;2023-03-01T03:21:06;1025.5449430550914;;;-2.958034551963543;0
55014;BME280;40916;51.632;5.552;2023-03-01T03:22:04;1025.634258988063;;;-2.958034551963543;0
55014;BME280;40916;51.632;5.552;2023-03-01T03:23:04;1025.6749646808892;;;-2.9659585445852628;0
55014;BME280;40916;51.632;5.552;2023-03-01T03:24:04;1025.5777399269102;;;-2.981809005919313;0
55014;BME280;40916;51.632;5.552;2023-03-01T03:25:04;1025.5118728341295;;;-3.0135198419967857;0
55014;BME280;40916;51.632;5.552;2023-03-01T03:26:05;1025.5654557808846;;;-3.0135198419967857;0
55014;BME280;40916;51.632;5.552;2023-03-01T03:27:05;1025.5868889666656;;;-3.0135198419967857;0
55014;BME280;40916;51.632;5.552;2023-03-01T03:28:05;1025.5674113585083;;;-3.0452439132104487;0
55014;BME280;40916;51.632;5.552;2023-03-01T03:29:05;1025.5245480120457;;;-3.0452439132104487;0
55014;BME280;40916;51.632;5.552;2023-03-01T03:30:06;1025.5544978598111;;;-3.0531770014341504;0
55014;BME280;40916;51.632;5.552;2023-03-01T03:31:05;1025.5844435448032;;;-3.0611109184748813;0
55014;BME280;40916;51.632;5.552;2023-03-01T03:32:05;1025.6358156235037;;;-3.0690456646573914;0
55014;BME280;40916;51.632;5.552;2023-03-01T03:33:05;1025.6363247552983;;;-3.0928548813057013;0
55014;BME280;40916;51.632;5.552;2023-03-01T03:34:05;1025.5560098913318;;;-3.1246121312198483;0
55014;BME280;40916;51.632;5.552;2023-03-01T03:35:06;1025.6176008231348;;;-3.1087318440749456;0
55014;BME280;40916;51.632;5.552;2023-03-01T03:36:06;1025.558692255572;;;-3.1404957453486446;0
55014;BME280;40916;51.632;5.552;2023-03-01T03:37:05;1025.5787801919826;;;-3.1325535222481378;0
55014;BME280;40916;51.632;5.552;2023-03-01T03:38:07;1025.5948310075617;;;-3.164327410348861;0
55014;BME280;40916;51.632;5.552;2023-03-01T03:39:06;1025.5269819436548;;;-3.164327410348861;0
55014;BME280;40916;51.632;5.552;2023-03-01T03:40:06;1025.5215606365605;;;-3.196114632518011;0
55014;BME280;40916;51.632;5.552;2023-03-01T03:41:07;1025.5510590416973;;;-3.180219353366322;0
55014;BME280;40916;51.632;5.552;2023-03-01T03:42:06;1025.547870420192;;;-3.204063523963004;0
55014;BME280;40916;51.632;5.552;2023-03-01T03:43:07;1025.5813173968616;;;-3.2120132504244694;0
55014;BME280;40916;51.632;5.552;2023-03-01T03:44:06;1025.586195550638;;;-3.2199638122304037;0
55014;BME280;40916;51.632;5.552;2023-03-01T03:45:07;1025.5754838597722;;;-3.2199638122304037;0
55014;BME280;40916;51.632;5.552;2023-03-01T03:46:06;1025.5566671049137;;;-3.2358674431885355;0
55014;BME280;40916;51.632;5.552;2023-03-01T03:47:07;1025.5057063170843;;;-3.251774419464809;0
55014;BME280;40916;51.632;5.552;2023-03-01T03:48:07;1025.5284208894946;;;-3.259729162919072;0
55014;BME280;40916;51.632;5.552;2023-03-01T03:49:07;1025.5488473471266;;;-3.2756411621049857;0
55014;BME280;40916;51.632;5.552;2023-03-01T03:50:07;1025.4251781695048;;;-3.2835984184952167;0
55014;BME280;40916;51.632;5.552;2023-03-01T03:51:09;1025.4774449305885;;;-3.2756411621049857;0
55014;BME280;40916;51.632;5.552;2023-03-01T03:52:07;1025.5199875559294;;;-3.251774419464809;0
55014;BME280;40916;51.632;5.552;2023-03-01T03:53:08;1025.4190347508174;;;-3.267684743689397;0
55014;BME280;40916;51.632;5.552;2023-03-01T03:54:07;1025.454736564819;;;-3.267684743689397;0
55014;BME280;40916;51.632;5.552;2023-03-01T03:55:08;1025.4154645700346;;;-3.267684743689397;0
55014;BME280;40916;51.632;5.552;2023-03-01T03:56:08;1025.4427349880025;;;-3.259729162919072;0
55014;BME280;40916;51.632;5.552;2023-03-01T03:57:08;1025.5248506423081;;;-3.259729162919072;0
55014;BME280;40916;51.632;5.552;2023-03-01T03:58:09;1025.5131461332458;;;-3.2756411621049857;0
55014;BME280;40916;51.632;5.552;2023-03-01T03:59:08;1025.437169973191;;;-3.2915565131896365;0
55014;BME280;40916;51.632;5.552;2023-03-01T04:00:09;1025.484585170222;;;-3.2756411621049857;0
55014;BME280;40916;51.632;5.552;2023-03-01T04:01:08;1025.3716273558598;;;-3.2835984184952167;0
55014;BME280;40916;51.632;5.552;2023-03-01T04:02:08;1025.4190347508174;;;-3.267684743689397;0
55014;BME280;40916;51.632;5.552;2023-03-01T04:03:08;1025.434300149798;;;-3.251774419464809;0
55014;BME280;40916;51.632;5.552;2023-03-01T04:04:08;1025.3489206939514;;;-3.2756411621049857;0
55014;BME280;40916;51.632;5.552;2023-03-01T04:05:09;1025.3917620900022;;;-3.2756411621049857;0
55014;BME280;40916;51.632;5.552;2023-03-01T04:06:08;1025.2135430772828;;;-3.2995154465179617;0
55014;BME280;40916;51.632;5.552;2023-03-01T04:07:09;1025.2790797773127;;;-3.3074752188100867;0
55014;BME280;40916;51.632;5.552;2023-03-01T04:08:09;1025.316052648205;;;-3.31543583039608;0
55014;BME280;40916;51.632;5.552;2023-03-01T04:09:09;1025.168665351833;;;-3.33135957277079;0
55014;BME280;40916;51.632;5.552;2023-03-01T04:10:10;1025.2663120511845;;;-3.3393227042205105;0
55014;BME280;40916;51.632;5.552;2023-03-01T04:11:09;1025.3091473682528;;;-3.3393227042205105;0
55014;BME280;40916;51.632;5.552;2023-03-01T04:12:09;1025.2616946672465;;;-3.355251489298471;0
55014;BME280;40916;51.632;5.552;2023-03-01T04:13:10;1025.2476069171905;;;-3.3791509773283153;0
55014;BME280;40916;51.632;5.552;2023-03-01T04:14:09;1025.225113157056;;;-3.395088180157117;0